createdAt,value
2018-02-04T00:00:16.861Z,989.04
2018-02-04T00:01:26.660Z,989.08
2018-02-04T00:02:36.791Z,989.08
2018-02-04T00:03:46.848Z,989.11
2018-02-04T00:04:56.898Z,989.12
2018-02-04T00:06:06.960Z,989.17
2018-02-04T00:07:17.026Z,989.12
2018-02-04T00:08:27.077Z,989.16
2018-02-04T00:09:37.132Z,989.12
2018-02-04T00:10:46.919Z,989.17
2018-02-04T00:11:56.973Z,989.13
2018-02-04T00:13:07.055Z,989.13
2018-02-04T00:14:17.107Z,989.14
2018-02-04T00:15:27.207Z,989.18
2018-02-04T00:16:37.255Z,989.15
2018-02-04T00:17:47.056Z,989.2
2018-02-04T00:18:56.869Z,989.18
2018-02-04T00:20:07.631Z,989.18
2018-02-04T00:21:17.741Z,989.18
2018-02-04T00:22:27.255Z,989.21
2018-02-04T00:23:36.808Z,989.21
2018-02-04T00:24:46.866Z,989.25
2018-02-04T00:25:56.905Z,989.22
2018-02-04T00:27:07.001Z,989.21
2018-02-04T00:28:17.041Z,989.27
2018-02-04T00:29:27.105Z,989.27
2018-02-04T00:30:37.147Z,989.25
2018-02-04T00:31:46.429Z,989.26
2018-02-04T00:32:56.271Z,989.31
2018-02-04T00:34:06.333Z,989.31
2018-02-04T00:35:16.135Z,989.34
2018-02-04T00:36:26.207Z,989.4
2018-02-04T00:37:36.005Z,989.38
2018-02-04T00:38:45.802Z,989.43
2018-02-04T00:39:55.840Z,989.42
2018-02-04T00:41:05.888Z,989.44
2018-02-04T00:42:15.944Z,989.43
2018-02-04T00:43:25.990Z,989.47
2018-02-04T00:44:36.037Z,989.49
2018-02-04T00:45:46.078Z,989.51
2018-02-04T00:46:56.155Z,989.5
2018-02-04T00:48:06.202Z,989.46
2018-02-04T00:49:16.259Z,989.53
2018-02-04T00:50:26.313Z,989.5
2018-02-04T00:51:36.373Z,989.53
2018-02-04T00:52:46.165Z,989.55
2018-02-04T00:53:56.211Z,989.52
2018-02-04T00:55:06.268Z,989.55
2018-02-04T00:56:16.312Z,989.58
2018-02-04T00:57:26.091Z,989.57
2018-02-04T00:58:36.151Z,989.61
2018-02-04T00:59:46.216Z,989.57
2018-02-04T01:00:56.262Z,989.57
2018-02-04T01:02:06.058Z,989.59
2018-02-04T01:03:16.116Z,989.61
2018-02-04T01:04:25.902Z,989.58
2018-02-04T01:05:35.703Z,989.6
2018-02-04T01:06:45.746Z,989.59
2018-02-04T01:07:55.879Z,989.57
2018-02-04T01:09:05.945Z,989.62
2018-02-04T01:10:16.006Z,989.63
2018-02-04T01:11:26.055Z,989.61
2018-02-04T01:12:36.096Z,989.61
2018-02-04T01:13:46.147Z,989.55
2018-02-04T01:14:56.176Z,989.61
2018-02-04T01:16:06.278Z,989.63
2018-02-04T01:17:16.065Z,989.62
2018-02-04T01:18:26.108Z,989.6
2018-02-04T01:19:36.213Z,989.59
2018-02-04T01:20:46.261Z,989.63
2018-02-04T01:21:56.046Z,989.64
2018-02-04T01:23:06.092Z,989.64
2018-02-04T01:24:16.137Z,989.65
2018-02-04T01:25:26.238Z,989.65
2018-02-04T01:26:36.035Z,989.67
2018-02-04T01:27:46.083Z,989.68
2018-02-04T01:28:55.875Z,989.66
2018-02-04T01:30:05.931Z,989.7
2018-02-04T01:31:15.970Z,989.7
2018-02-04T01:32:25.760Z,989.78
2018-02-04T01:33:35.795Z,989.75
2018-02-04T01:34:46.914Z,989.75
2018-02-04T01:35:56.970Z,989.74
2018-02-04T01:37:07.081Z,989.73
2018-02-04T01:38:17.188Z,989.78
2018-02-04T01:39:27.225Z,989.75
2018-02-04T01:40:37.072Z,989.77
2018-02-04T01:41:47.129Z,989.75
2018-02-04T01:42:56.436Z,989.78
2018-02-04T01:44:06.207Z,989.76
2018-02-04T01:45:16.251Z,989.74
2018-02-04T01:46:26.045Z,989.78
2018-02-04T01:47:36.091Z,989.8
2018-02-04T01:48:46.185Z,989.81
2018-02-04T01:49:56.237Z,989.79
2018-02-04T01:51:06.298Z,989.79
2018-02-04T01:52:16.093Z,989.77
2018-02-04T01:53:25.885Z,989.8
2018-02-04T01:54:35.923Z,989.86
2018-02-04T01:55:45.700Z,989.85
2018-02-04T01:56:55.736Z,989.89
2018-02-04T01:58:05.768Z,989.81
2018-02-04T01:59:15.540Z,989.82
2018-02-04T02:00:25.336Z,989.78
2018-02-04T02:01:35.400Z,989.86
2018-02-04T02:02:45.449Z,989.82
2018-02-04T02:03:55.533Z,989.81
2018-02-04T02:05:05.581Z,989.82
2018-02-04T02:06:15.626Z,989.78
2018-02-04T02:07:25.164Z,989.78
2018-02-04T02:08:34.952Z,989.81
2018-02-04T02:09:45.006Z,989.81
2018-02-04T02:10:54.781Z,989.8
2018-02-04T02:12:04.566Z,989.87
2018-02-04T02:13:14.388Z,989.87
2018-02-04T02:14:24.433Z,989.85
2018-02-04T02:15:34.479Z,989.88
2018-02-04T02:16:44.674Z,989.92
2018-02-04T02:17:54.780Z,989.94
2018-02-04T02:19:04.829Z,989.94
2018-02-04T02:20:14.613Z,989.95
2018-02-04T02:21:24.386Z,989.96
2018-02-04T02:22:34.425Z,989.97
2018-02-04T02:23:44.460Z,989.98
2018-02-04T02:24:54.508Z,990
2018-02-04T02:26:04.310Z,990.02
2018-02-04T02:27:14.347Z,990.02
2018-02-04T02:28:24.126Z,990.02
2018-02-04T02:29:33.896Z,990.05
2018-02-04T02:30:43.935Z,990.05
2018-02-04T02:31:53.745Z,990.04
2018-02-04T02:33:03.787Z,990.06
2018-02-04T02:34:13.835Z,990.09
2018-02-04T02:35:23.974Z,990.13
2018-02-04T02:36:33.767Z,990.15
2018-02-04T02:37:43.808Z,990.16
2018-02-04T02:38:53.589Z,990.18
2018-02-04T02:40:03.122Z,990.17
2018-02-04T02:41:13.198Z,990.23
2018-02-04T02:42:23.253Z,990.25
2018-02-04T02:43:33.289Z,990.25
2018-02-04T02:44:43.021Z,990.27
2018-02-04T02:45:53.077Z,990.34
2018-02-04T02:47:03.120Z,990.37
2018-02-04T02:48:13.179Z,990.43
2018-02-04T02:49:23.225Z,990.4
2018-02-04T02:50:33.282Z,990.4
2018-02-04T02:51:43.320Z,990.41
2018-02-04T02:52:52.831Z,990.44
2018-02-04T02:54:02.895Z,990.45
2018-02-04T02:55:27.720Z,990.48
2018-02-04T02:56:37.774Z,990.49
2018-02-04T02:57:47.834Z,990.45
2018-02-04T02:58:57.626Z,990.49
2018-02-04T03:00:07.421Z,990.5
2018-02-04T03:01:17.482Z,990.5
2018-02-04T03:02:27.030Z,990.54
2018-02-04T03:03:37.126Z,990.57
2018-02-04T03:34:55.941Z,990.95
2018-02-04T03:36:05.711Z,990.89
2018-02-04T03:37:15.743Z,990.95
2018-02-04T03:38:25.820Z,990.95
2018-02-04T03:39:35.875Z,991
2018-02-04T03:40:45.923Z,991.02
2018-02-04T03:41:55.719Z,991.1
2018-02-04T03:43:05.758Z,991.1
2018-02-04T03:44:15.541Z,991.13
2018-02-04T03:45:25.589Z,991.13
2018-02-04T03:46:35.406Z,991.15
2018-02-04T03:47:45.461Z,991.15
2018-02-04T03:48:55.242Z,991.18
2018-02-04T03:50:05.298Z,991.23
2018-02-04T03:51:15.339Z,991.2
2018-02-04T03:52:25.391Z,991.23
2018-02-04T03:53:35.158Z,991.27
2018-02-04T03:54:45.198Z,991.27
2018-02-04T03:55:55.237Z,991.25
2018-02-04T03:57:05.306Z,991.26
2018-02-04T03:58:14.875Z,991.29
2018-02-04T03:59:24.911Z,991.3
2018-02-04T04:00:34.954Z,991.31
2018-02-04T04:01:45.021Z,991.33
2018-02-04T04:02:54.794Z,991.34
2018-02-04T04:04:04.867Z,991.3
2018-02-04T04:05:14.920Z,991.38
2018-02-04T04:06:24.954Z,991.37
2018-02-04T04:07:34.735Z,991.35
2018-02-04T04:08:44.791Z,991.39
2018-02-04T04:09:54.363Z,991.45
2018-02-04T04:11:04.161Z,991.44
2018-02-04T04:12:14.210Z,991.44
2018-02-04T04:13:24.263Z,991.48
2018-02-04T04:14:34.067Z,991.48
2018-02-04T04:15:43.836Z,991.55
2018-02-04T04:16:53.621Z,991.6
2018-02-04T04:18:03.660Z,991.61
2018-02-04T04:19:13.444Z,991.63
2018-02-04T04:20:23.495Z,991.66
2018-02-04T04:21:33.552Z,991.65
2018-02-04T04:22:43.604Z,991.62
2018-02-04T04:23:53.692Z,991.61
2018-02-04T04:25:03.726Z,991.61
2018-02-04T04:26:13.246Z,991.66
2018-02-04T04:27:23.354Z,991.63
2018-02-04T04:28:33.132Z,991.62
2018-02-04T04:29:43.176Z,991.6
2018-02-04T04:30:52.959Z,991.61
2018-02-04T04:32:02.475Z,991.66
2018-02-04T04:33:12.533Z,991.69
2018-02-04T04:34:22.585Z,991.73
2018-02-04T04:35:32.632Z,991.78
2018-02-04T04:36:42.409Z,991.76
2018-02-04T04:37:52.181Z,991.85
2018-02-04T04:39:02.234Z,991.86
2018-02-04T04:40:12.268Z,991.85
2018-02-04T04:41:22.054Z,991.84
2018-02-04T04:42:32.102Z,991.82
2018-02-04T04:43:42.154Z,991.88
2018-02-04T04:44:52.204Z,991.9
2018-02-04T04:46:02.253Z,991.91
2018-02-04T04:47:12.333Z,991.93
2018-02-04T04:48:22.120Z,991.94
2018-02-04T04:49:32.173Z,991.97
2018-02-04T04:50:42.270Z,991.96
2018-02-04T04:51:52.315Z,991.99
2018-02-04T04:53:02.368Z,992
2018-02-04T04:54:12.408Z,992.01
2018-02-04T04:55:22.440Z,992.05
2018-02-04T04:56:32.280Z,991.97
2018-02-04T04:57:42.316Z,992.05
2018-02-04T04:58:52.106Z,992.03
2018-02-04T05:00:02.158Z,992.05
2018-02-04T05:01:12.191Z,992.09
2018-02-04T05:02:22.236Z,992.14
2018-02-04T05:03:32.025Z,992.14
2018-02-04T05:04:42.056Z,992.1
2018-02-04T05:05:51.842Z,992.15
2018-02-04T05:07:01.880Z,992.15
2018-02-04T05:08:11.921Z,992.14
2018-02-04T05:09:21.960Z,992.17
2018-02-04T05:10:31.733Z,992.15
2018-02-04T05:11:41.522Z,992.18
2018-02-04T05:12:51.557Z,992.25
2018-02-04T05:14:01.624Z,992.21
2018-02-04T05:15:11.412Z,992.24
2018-02-04T05:16:20.943Z,992.24
2018-02-04T05:17:30.979Z,992.27
2018-02-04T05:18:41.028Z,992.27
2018-02-04T05:19:51.147Z,992.33
2018-02-04T05:21:00.926Z,992.29
2018-02-04T05:22:10.970Z,992.36
2018-02-04T05:23:21.008Z,992.39
2018-02-04T05:24:30.804Z,992.42
2018-02-04T05:25:40.912Z,992.45
2018-02-04T05:26:50.707Z,992.46
2018-02-04T05:28:00.497Z,992.48
2018-02-04T05:29:10.543Z,992.5
2018-02-04T05:30:20.074Z,992.52
2018-02-04T05:31:29.902Z,992.52
2018-02-04T05:32:39.939Z,992.53
2018-02-04T05:33:49.978Z,992.51
2018-02-04T05:35:00.007Z,992.57
2018-02-04T05:36:09.797Z,992.55
2018-02-04T05:37:19.844Z,992.57
2018-02-04T05:38:29.653Z,992.57
2018-02-04T05:39:39.696Z,992.61
2018-02-04T05:40:49.741Z,992.66
2018-02-04T05:41:59.776Z,992.6
2018-02-04T05:43:09.734Z,992.64
2018-02-04T05:44:19.780Z,992.64
2018-02-04T05:45:29.819Z,992.68
2018-02-04T05:46:39.613Z,992.73
2018-02-04T05:47:49.401Z,992.72
2018-02-04T05:48:59.499Z,992.77
2018-02-04T05:50:09.538Z,992.73
2018-02-04T05:51:19.569Z,992.76
2018-02-04T05:52:29.606Z,992.8
2018-02-04T05:53:39.670Z,992.77
2018-02-04T05:54:49.702Z,992.77
2018-02-04T05:55:59.752Z,992.79
2018-02-04T05:57:09.794Z,992.8
2018-02-04T05:58:19.829Z,992.76
2018-02-04T05:59:29.622Z,992.81
2018-02-04T06:00:39.679Z,992.9
2018-02-04T06:01:49.768Z,992.91
2018-02-04T06:02:59.802Z,992.94
2018-02-04T06:04:09.845Z,992.96
2018-02-04T06:05:19.640Z,992.98
2018-02-04T06:06:29.690Z,993.02
2018-02-04T06:07:39.726Z,993.02
2018-02-04T06:08:49.503Z,993.04
2018-02-04T06:09:59.318Z,993.05
2018-02-04T06:11:09.120Z,993.09
2018-02-04T06:12:19.225Z,993.1
2018-02-04T06:13:29.015Z,993.15
2018-02-04T06:14:39.066Z,993.16
2018-02-04T06:15:48.851Z,993.15
2018-02-04T06:16:58.896Z,993.16
2018-02-04T06:18:09.012Z,993.2
2018-02-04T06:19:19.059Z,993.26
2018-02-04T06:20:28.315Z,993.25
2018-02-04T06:21:38.094Z,993.29
2018-02-04T06:22:47.624Z,993.31
2018-02-04T06:23:57.715Z,993.34
2018-02-04T06:25:07.769Z,993.34
2018-02-04T06:26:17.805Z,993.39
2018-02-04T06:27:27.595Z,993.37
2018-02-04T06:28:37.646Z,993.4
2018-02-04T06:29:47.745Z,993.4
2018-02-04T06:30:57.526Z,993.4
2018-02-04T06:32:07.554Z,993.41
2018-02-04T06:33:17.601Z,993.43
2018-02-04T06:34:27.656Z,993.47
2018-02-04T06:35:37.492Z,993.48
2018-02-04T06:36:47.538Z,993.49
2018-02-04T06:37:57.596Z,993.58
2018-02-04T06:39:07.629Z,993.54
2018-02-04T06:40:17.660Z,993.54
2018-02-04T06:41:27.757Z,993.56
2018-02-04T06:42:37.553Z,993.56
2018-02-04T06:43:47.697Z,993.59
2018-02-04T06:44:57.532Z,993.61
2018-02-04T06:46:07.583Z,993.62
2018-02-04T06:47:17.675Z,993.66
2018-02-04T06:48:27.709Z,993.66
2018-02-04T06:49:37.815Z,993.69
2018-02-04T06:50:47.860Z,993.69
2018-02-04T06:51:57.636Z,993.67
2018-02-04T06:53:07.688Z,993.75
2018-02-04T06:54:17.704Z,993.76
2018-02-04T06:55:27.498Z,993.76
2018-02-04T06:56:37.544Z,993.81
2018-02-04T06:57:47.600Z,993.79
2018-02-04T06:58:57.707Z,993.84
2018-02-04T07:00:07.752Z,993.77
2018-02-04T07:01:17.801Z,993.84
2018-02-04T07:02:27.839Z,993.85
2018-02-04T07:03:37.885Z,993.86
2018-02-04T07:04:47.672Z,993.92
2018-02-04T07:05:57.709Z,993.92
2018-02-04T07:07:07.496Z,993.91
2018-02-04T07:08:17.540Z,993.94
2018-02-04T07:09:27.578Z,994
2018-02-04T07:10:37.691Z,994
2018-02-04T07:11:47.477Z,994.03
2018-02-04T07:12:57.506Z,994.06
2018-02-04T07:14:07.290Z,994.11
2018-02-04T07:15:17.332Z,994.09
2018-02-04T07:16:27.389Z,994.09
2018-02-04T07:17:37.431Z,994.11
2018-02-04T07:18:46.962Z,994.14
2018-02-04T07:19:57.014Z,994.15
2018-02-04T07:21:07.090Z,994.23
2018-02-04T07:22:17.142Z,994.25
2018-02-04T07:23:26.921Z,994.26
2018-02-04T07:24:37.046Z,994.3
2018-02-04T07:25:47.114Z,994.34
2018-02-04T07:26:57.169Z,994.31
2018-02-04T07:28:07.327Z,994.36
2018-02-04T07:29:17.099Z,994.42
2018-02-04T07:30:27.138Z,994.48
2018-02-04T07:31:37.178Z,994.46
2018-02-04T07:32:46.954Z,994.47
2018-02-04T07:33:56.996Z,994.46
2018-02-04T07:35:07.049Z,994.55
2018-02-04T07:36:17.089Z,994.55
2018-02-04T07:37:27.136Z,994.56
2018-02-04T07:38:36.929Z,994.58
2018-02-04T07:39:47.023Z,994.61
2018-02-04T07:40:56.555Z,994.6
2018-02-04T07:42:06.608Z,994.66
2018-02-04T07:43:16.653Z,994.65
2018-02-04T07:44:26.451Z,994.7
2018-02-04T07:45:36.511Z,994.66
2018-02-04T07:46:46.307Z,994.74
2018-02-04T07:47:56.348Z,994.74
2018-02-04T07:49:06.418Z,994.74
2018-02-04T07:50:16.480Z,994.75
2018-02-04T07:51:26.546Z,994.79
2018-02-04T07:52:36.339Z,994.77
2018-02-04T07:53:46.133Z,994.82
2018-02-04T07:54:56.185Z,994.74
2018-02-04T07:56:06.281Z,994.76
2018-02-04T07:57:16.371Z,994.78
2018-02-04T07:58:26.428Z,994.79
2018-02-04T07:59:36.474Z,994.76
2018-02-04T08:00:46.526Z,994.77
2018-02-04T08:01:56.576Z,994.8
2018-02-04T08:03:06.102Z,994.85
2018-02-04T08:04:16.170Z,994.87
2018-02-04T08:05:26.223Z,994.89
2018-02-04T08:06:36.269Z,994.87
2018-02-04T08:07:46.314Z,994.89
2018-02-04T08:08:56.374Z,994.9
2018-02-04T08:10:06.432Z,994.93
2018-02-04T08:11:16.485Z,994.9
2018-02-04T08:12:26.551Z,994.9
2018-02-04T08:13:36.339Z,994.94
2018-02-04T08:14:46.199Z,994.99
2018-02-04T08:15:56.263Z,995.05
2018-02-04T08:17:06.041Z,995.02
2018-02-04T08:18:15.823Z,995.06
2018-02-04T08:19:25.881Z,995.11
2018-02-04T08:20:36.020Z,995.1
2018-02-04T08:21:45.808Z,995.13
2018-02-04T08:22:55.855Z,995.12
2018-02-04T08:24:05.902Z,995.15
2018-02-04T08:25:15.938Z,995.17
2018-02-04T08:26:26.033Z,995.17
2018-02-04T08:27:35.806Z,995.21
2018-02-04T08:28:45.327Z,995.2
2018-02-04T08:29:55.132Z,995.24
2018-02-04T08:31:05.185Z,995.25
2018-02-04T08:32:15.018Z,995.21
2018-02-04T08:33:25.102Z,995.22
2018-02-04T08:34:35.146Z,995.22
2018-02-04T08:35:45.211Z,995.26
2018-02-04T08:36:55.260Z,995.26
2018-02-04T08:38:05.333Z,995.26
2018-02-04T08:39:15.110Z,995.3
2018-02-04T08:40:25.160Z,995.29
2018-02-04T08:41:35.229Z,995.3
2018-02-04T08:42:44.767Z,995.33
2018-02-04T08:43:54.817Z,995.35
2018-02-04T08:45:04.855Z,995.36
2018-02-04T08:46:14.905Z,995.42
2018-02-04T08:47:24.936Z,995.38
2018-02-04T08:48:34.985Z,995.38
2018-02-04T08:49:45.043Z,995.42
2018-02-04T08:50:55.076Z,995.4
2018-02-04T08:52:05.149Z,995.46
2018-02-04T08:53:15.211Z,995.42
2018-02-04T08:54:25.270Z,995.48
2018-02-04T08:55:34.543Z,995.44
2018-02-04T08:56:44.402Z,995.43
2018-02-04T08:57:54.443Z,995.41
2018-02-04T08:59:04.244Z,995.47
2018-02-04T09:00:14.288Z,995.48
2018-02-04T09:01:24.083Z,995.45
2018-02-04T09:02:34.163Z,995.45
2018-02-04T09:03:44.219Z,995.48
2018-02-04T09:04:53.753Z,995.57
2018-02-04T09:06:03.820Z,995.55
2018-02-04T09:07:13.862Z,995.58
2018-02-04T09:08:23.952Z,995.54
2018-02-04T09:09:33.742Z,995.58
2018-02-04T09:10:43.802Z,995.59
2018-02-04T09:11:53.877Z,995.61
2018-02-04T09:13:04.190Z,995.6
2018-02-04T09:14:14.238Z,995.61
2018-02-04T09:15:24.340Z,995.61
2018-02-04T09:16:34.408Z,995.72
2018-02-04T09:17:44.205Z,995.71
2018-02-04T09:18:54.004Z,995.8
2018-02-04T09:20:03.800Z,995.75
2018-02-04T09:21:13.604Z,995.77
2018-02-04T09:22:23.715Z,995.86
2018-02-04T09:23:33.526Z,995.84
2018-02-04T09:24:43.315Z,995.93
2018-02-04T09:25:53.368Z,995.92
2018-02-04T09:27:02.911Z,995.98
2018-02-04T09:28:13.016Z,996.01
2018-02-04T09:29:23.064Z,995.99
2018-02-04T09:30:32.852Z,996.07
2018-02-04T09:31:42.929Z,996.08
2018-02-04T09:32:52.719Z,996.14
2018-02-04T09:34:02.867Z,996.17
2018-02-04T09:35:12.925Z,996.23
2018-02-04T09:36:23.011Z,996.21
2018-02-04T09:37:33.127Z,996.19
2018-02-04T09:38:43.174Z,996.22
2018-02-04T09:39:52.967Z,996.28
2018-02-04T09:41:02.752Z,996.3
2018-02-04T09:42:12.799Z,996.28
2018-02-04T09:43:22.340Z,996.29
2018-02-04T09:44:31.878Z,996.34
2018-02-04T09:45:41.689Z,996.34
2018-02-04T09:46:51.766Z,996.39
2018-02-04T09:48:01.568Z,996.38
2018-02-04T09:49:11.379Z,996.4
2018-02-04T09:50:21.163Z,996.42
2018-02-04T09:51:31.227Z,996.44
2018-02-04T09:52:41.301Z,996.4
2018-02-04T09:53:51.117Z,996.38
2018-02-04T09:55:01.195Z,996.5
2018-02-04T09:56:11.236Z,996.42
2018-02-04T09:57:20.787Z,996.42
2018-02-04T09:58:30.578Z,996.42
2018-02-04T09:59:40.735Z,996.43
2018-02-04T10:00:50.792Z,996.35
2018-02-04T10:02:00.921Z,996.34
2018-02-04T10:03:11.047Z,996.36
2018-02-04T10:04:21.116Z,996.34
2018-02-04T10:05:31.210Z,996.31
2018-02-04T10:06:41.266Z,996.31
2018-02-04T10:07:51.317Z,996.36
2018-02-04T10:09:01.384Z,996.38
2018-02-04T10:10:11.440Z,996.33
2018-02-04T10:11:21.513Z,996.37
2018-02-04T10:12:31.621Z,996.37
2018-02-04T10:13:41.427Z,996.37
2018-02-04T10:14:51.540Z,996.37
2018-02-04T10:16:01.608Z,996.38
2018-02-04T10:17:11.668Z,996.4
2018-02-04T10:18:21.469Z,996.39
2018-02-04T10:19:31.542Z,996.42
2018-02-04T10:20:41.120Z,996.39
2018-02-04T10:21:50.914Z,996.41
2018-02-04T10:23:00.966Z,996.41
2018-02-04T10:24:11.027Z,996.46
2018-02-04T10:25:21.194Z,996.45
2018-02-04T10:26:31.360Z,996.5
2018-02-04T10:27:41.414Z,996.42
2018-02-04T10:28:50.951Z,996.5
2018-02-04T10:30:01.013Z,996.47
2018-02-04T10:31:11.073Z,996.53
2018-02-04T10:32:21.414Z,996.46
2018-02-04T10:33:31.204Z,996.55
2018-02-04T10:34:41.257Z,996.55
2018-02-04T10:35:51.343Z,996.53
2018-02-04T10:37:01.444Z,996.54
2018-02-04T10:38:11.524Z,996.56
2018-02-04T10:39:21.595Z,996.49
2018-02-04T10:40:31.391Z,996.56
2018-02-04T10:41:41.446Z,996.55
2018-02-04T10:42:51.512Z,996.58
2018-02-04T10:44:01.629Z,996.56
2018-02-04T10:45:11.693Z,996.58
2018-02-04T10:46:21.756Z,996.57
2018-02-04T10:47:31.552Z,996.61
2018-02-04T10:48:41.688Z,996.62
2018-02-04T10:49:51.741Z,996.65
2018-02-04T10:51:01.538Z,996.64
2018-02-04T10:52:11.594Z,996.65
2018-02-04T10:53:21.646Z,996.69
2018-02-04T10:54:31.708Z,996.63
2018-02-04T10:55:41.585Z,996.66
2018-02-04T10:56:51.642Z,996.65
2018-02-04T10:58:01.703Z,996.64
2018-02-04T10:59:11.755Z,996.64
2018-02-04T11:00:21.553Z,996.72
2018-02-04T11:01:31.672Z,996.69
2018-02-04T11:02:41.455Z,996.7
2018-02-04T11:03:51.504Z,996.66
2018-02-04T11:05:01.577Z,996.67
2018-02-04T11:06:11.660Z,996.68
2018-02-04T11:07:21.729Z,996.71
2018-02-04T11:08:31.770Z,996.7
2018-02-04T11:09:41.816Z,996.67
2018-02-04T11:10:51.869Z,996.66
2018-02-04T11:12:01.920Z,996.71
2018-02-04T11:13:11.973Z,996.66
2018-02-04T11:14:22.042Z,996.62
2018-02-04T11:15:32.085Z,996.7
2018-02-04T11:16:42.162Z,996.63
2018-02-04T11:17:52.223Z,996.67
2018-02-04T11:19:02.043Z,996.68
2018-02-04T11:20:12.122Z,996.66
2018-02-04T11:21:21.939Z,996.73
2018-02-04T11:22:31.997Z,996.68
2018-02-04T11:23:42.065Z,996.67
2018-02-04T11:24:51.916Z,996.69
2018-02-04T11:26:01.979Z,996.69
2018-02-04T11:27:12.150Z,996.72
2018-02-04T11:28:22.217Z,996.72
2018-02-04T11:29:32.283Z,996.74
2018-02-04T11:30:42.394Z,996.77
2018-02-04T11:31:52.184Z,996.76
2018-02-04T11:33:02.250Z,996.79
2018-02-04T11:34:12.306Z,996.75
2018-02-04T11:35:22.100Z,996.82
2018-02-04T11:36:31.974Z,996.81
2018-02-04T11:37:41.759Z,996.78
2018-02-04T11:38:51.549Z,996.87
2018-02-04T11:40:01.608Z,996.88
2018-02-04T11:41:11.684Z,996.9
2018-02-04T11:42:21.511Z,996.9
2018-02-04T11:43:31.592Z,996.91
2018-02-04T11:44:41.663Z,996.91
2018-02-04T11:45:51.746Z,996.95
2018-02-04T11:47:01.546Z,996.96
2018-02-04T11:48:11.597Z,996.99
2018-02-04T11:49:21.649Z,996.99
2018-02-04T11:50:31.453Z,996.98
2018-02-04T11:51:41.502Z,996.99
2018-02-04T11:52:51.363Z,996.96
2018-02-04T11:54:01.498Z,996.98
2018-02-04T11:55:11.286Z,997.04
2018-02-04T11:56:21.340Z,997.03
2018-02-04T11:57:31.423Z,997.04
2018-02-04T11:58:41.215Z,997.11
2018-02-04T11:59:51.291Z,997.06
2018-02-04T12:01:01.380Z,997.06
2018-02-04T12:02:11.444Z,997.01
2018-02-04T12:03:21.518Z,997.04
2018-02-04T12:04:31.603Z,997.04
2018-02-04T12:05:41.706Z,997.08
2018-02-04T12:06:51.778Z,997.06
2018-02-04T12:08:01.320Z,997.07
2018-02-04T12:09:11.365Z,997.08
2018-02-04T12:10:20.896Z,997.15
2018-02-04T12:11:30.990Z,997.09
2018-02-04T12:12:41.048Z,997.09
2018-02-04T12:13:51.088Z,997.09
2018-02-04T12:15:01.155Z,997.14
2018-02-04T12:16:10.965Z,997.14
2018-02-04T12:17:20.755Z,997.17
2018-02-04T12:18:30.825Z,997.17
2018-02-04T12:19:40.874Z,997.21
2018-02-04T12:20:50.958Z,997.17
2018-02-04T12:22:01.028Z,997.16
2018-02-04T12:23:10.809Z,997.19
2018-02-04T12:24:20.881Z,997.17
2018-02-04T12:25:30.929Z,997.12
2018-02-04T12:26:40.977Z,997.14
2018-02-04T12:27:51.028Z,997.15
2018-02-04T12:29:01.094Z,997.21
2018-02-04T12:30:10.899Z,997.17
2018-02-04T12:31:20.944Z,997.17
2018-02-04T12:32:30.211Z,997.15
2018-02-04T12:33:40.258Z,997.22
2018-02-04T12:34:50.358Z,997.17
2018-02-04T12:36:00.136Z,997.22
2018-02-04T12:37:10.180Z,997.32
2018-02-04T12:38:19.985Z,997.32
2018-02-04T12:39:30.026Z,997.32
2018-02-04T12:40:39.822Z,997.4
2018-02-04T12:41:49.624Z,997.37
2018-02-04T12:42:59.691Z,997.35
2018-02-04T12:44:09.503Z,997.42
2018-02-04T12:45:19.547Z,997.43
2018-02-04T12:46:29.601Z,997.38
2018-02-04T12:47:39.135Z,997.45
2018-02-04T12:48:49.201Z,997.45
2018-02-04T12:49:58.983Z,997.5
2018-02-04T12:51:08.780Z,997.57
2018-02-04T12:52:18.845Z,997.55
2018-02-04T12:53:28.932Z,997.59
2018-02-04T12:54:39.019Z,997.57
2018-02-04T12:55:49.091Z,997.57
2018-02-04T12:56:58.903Z,997.61
2018-02-04T12:58:08.779Z,997.53
2018-02-04T12:59:18.857Z,997.56
2018-02-04T13:00:28.913Z,997.58
2018-02-04T13:01:38.961Z,997.58
2018-02-04T13:02:49.002Z,997.59
2018-02-04T13:03:59.113Z,997.61
2018-02-04T13:05:09.179Z,997.62
2018-02-04T13:06:18.965Z,997.61
2018-02-04T13:07:28.993Z,997.61
2018-02-04T13:08:38.840Z,997.61
2018-02-04T13:09:48.923Z,997.62
2018-02-04T13:10:59.063Z,997.61
2018-02-04T13:12:08.857Z,997.59
2018-02-04T13:13:18.916Z,997.69
2018-02-04T13:14:28.744Z,997.63
2018-02-04T13:15:38.853Z,997.58
2018-02-04T13:16:48.935Z,997.63
2018-02-04T13:17:59.004Z,997.65
2018-02-04T13:19:09.089Z,997.67
2018-02-04T13:20:19.148Z,997.64
2018-02-04T13:21:29.234Z,997.64
2018-02-04T13:22:39.297Z,997.66
2018-02-04T13:23:49.343Z,997.71
2018-02-04T13:24:59.406Z,997.68
2018-02-04T13:26:09.199Z,997.68
2018-02-04T13:27:19.612Z,997.72
2018-02-04T13:28:29.693Z,997.69
2018-02-04T13:29:39.235Z,997.72
2018-02-04T13:30:49.034Z,997.67
2018-02-04T13:31:58.842Z,997.73
2018-02-04T13:33:08.910Z,997.74
2018-02-04T13:34:18.983Z,997.76
2018-02-04T13:35:29.105Z,997.77
2018-02-04T13:36:39.175Z,997.81
2018-02-04T13:37:49.248Z,997.81
2018-02-04T13:38:59.317Z,997.81
2018-02-04T13:40:09.114Z,997.84
2018-02-04T13:41:19.176Z,997.85
2018-02-04T13:42:29.238Z,997.85
2018-02-04T13:43:39.336Z,997.89
2018-02-04T13:44:49.164Z,997.92
2018-02-04T13:45:59.230Z,997.95
2018-02-04T13:47:09.293Z,997.98
2018-02-04T13:48:19.108Z,998.04
2018-02-04T13:49:29.160Z,998.01
2018-02-04T13:50:39.221Z,998.02
2018-02-04T13:51:49.023Z,998.07
2018-02-04T13:52:59.081Z,998.04
2018-02-04T13:54:09.166Z,998.1
2018-02-04T13:55:18.976Z,998.16
2018-02-04T13:56:29.084Z,998.13
2018-02-04T13:57:38.884Z,998.16
2018-02-04T13:58:48.966Z,998.17
2018-02-04T13:59:59.030Z,998.2
2018-02-04T14:01:09.161Z,998.24
2018-02-04T14:02:19.280Z,998.28
2018-02-04T14:03:29.341Z,998.24
2018-02-04T14:04:39.423Z,998.32
2018-02-04T14:05:49.498Z,998.29
2018-02-04T14:06:59.578Z,998.31
2018-02-04T14:08:09.688Z,998.33
2018-02-04T14:09:19.480Z,998.3
2018-02-04T14:10:29.553Z,998.37
2018-02-04T14:11:39.390Z,998.34
2018-02-04T14:12:49.267Z,998.3
2018-02-04T14:13:59.082Z,998.36
2018-02-04T14:15:08.874Z,998.31
2018-02-04T14:16:18.683Z,998.35
2018-02-04T14:17:28.756Z,998.35
2018-02-04T14:18:38.693Z,998.42
2018-02-04T14:19:48.544Z,998.41
2018-02-04T14:20:58.613Z,998.43
2018-02-04T14:22:08.435Z,998.49
2018-02-04T14:23:18.505Z,998.49
2018-02-04T14:24:28.605Z,998.44
2018-02-04T14:25:38.666Z,998.5
2018-02-04T14:26:48.215Z,998.55
2018-02-04T14:27:58.028Z,998.65
2018-02-04T14:29:08.095Z,998.56
2018-02-04T14:30:18.287Z,998.58
2018-02-04T14:31:28.367Z,998.59
2018-02-04T14:32:38.423Z,998.59
2018-02-04T14:33:48.328Z,998.56
2018-02-04T14:34:58.410Z,998.63
2018-02-04T14:36:08.481Z,998.62
2018-02-04T14:37:18.287Z,998.65
2018-02-04T14:38:28.373Z,998.69
2018-02-04T14:39:38.419Z,998.68
2018-02-04T14:40:48.219Z,998.7
2018-02-04T14:41:58.021Z,998.69
2018-02-04T14:43:08.103Z,998.69
2018-02-04T14:44:18.159Z,998.69
2018-02-04T14:45:28.227Z,998.7
2018-02-04T14:46:38.282Z,998.71
2018-02-04T14:47:48.345Z,998.72
2018-02-04T14:48:59.220Z,998.76
2018-02-04T14:50:09.295Z,998.76
2018-02-04T14:51:19.355Z,998.78
2018-02-04T14:52:29.407Z,998.78
2018-02-04T14:53:39.468Z,998.77
2018-02-04T14:54:49.537Z,998.82
2018-02-04T14:55:59.336Z,998.85
2018-02-04T14:57:09.384Z,998.8
2018-02-04T14:58:19.561Z,998.77
2018-02-04T14:59:29.362Z,998.8
2018-02-04T15:00:39.431Z,998.79
2018-02-04T15:01:49.473Z,998.79
2018-02-04T15:02:59.553Z,998.83
2018-02-04T15:04:09.612Z,998.82
2018-02-04T15:05:19.680Z,998.85
2018-02-04T15:06:29.714Z,998.87